createdAt,value
2022-12-28T00:01:20.057Z,9.90
2022-12-28T00:03:50.080Z,8.87
2022-12-28T00:06:20.208Z,8.97
2022-12-28T00:08:49.090Z,8.57
2022-12-28T00:11:26.617Z,9.77
2022-12-28T00:13:51.357Z,9.17
2022-12-28T00:16:28.874Z,9.43
2022-12-28T00:18:59.283Z,8.63
2022-12-28T00:21:28.840Z,9.03
2022-12-28T00:23:59.853Z,9.00
2022-12-28T00:26:30.398Z,9.10
2022-12-28T00:29:04.626Z,8.57
2022-12-28T00:31:30.479Z,8.47
2022-12-28T00:33:59.176Z,8.70
2022-12-28T00:37:09.528Z,8.43
2022-12-28T00:38:58.470Z,8.70
2022-12-28T00:41:27.320Z,9.47
2022-12-28T00:43:55.951Z,9.17
2022-12-28T00:46:24.734Z,9.73
2022-12-28T00:48:53.475Z,10.73
2022-12-28T00:51:22.297Z,9.63
2022-12-28T00:53:50.952Z,9.37
2022-12-28T00:56:24.007Z,9.70
2022-12-28T00:58:57.742Z,10.27
2022-12-28T01:01:28.411Z,11.80
2022-12-28T01:03:59.020Z,11.97
2022-12-28T01:06:29.301Z,12.40
2022-12-28T01:08:58.100Z,11.90
2022-12-28T01:11:29.405Z,13.63
2022-12-28T01:14:00.969Z,12.17
2022-12-28T01:16:35.822Z,12.83
2022-12-28T01:19:07.258Z,13.33
2022-12-28T01:21:37.464Z,13.37
2022-12-28T01:24:10.943Z,14.10
2022-12-28T01:26:41.027Z,13.47
2022-12-28T01:29:09.644Z,14.30
2022-12-28T01:31:38.369Z,14.47
2022-12-28T01:34:07.037Z,14.87
2022-12-28T01:36:36.242Z,14.30
2022-12-28T01:39:07.051Z,13.97
2022-12-28T01:41:39.547Z,14.93
2022-12-28T01:44:11.167Z,15.30
2022-12-28T01:46:42.968Z,14.90
2022-12-28T01:49:14.632Z,15.17
2022-12-28T01:52:05.695Z,14.90
2022-12-28T01:54:43.261Z,16.40
2022-12-28T01:57:15.332Z,15.40
2022-12-28T01:59:47.077Z,15.17
2022-12-28T02:02:17.165Z,16.10
2022-12-28T02:04:47.930Z,16.93
2022-12-28T02:07:19.596Z,16.53
2022-12-28T02:10:43.046Z,16.00
2022-12-28T02:12:20.452Z,16.27
2022-12-28T02:14:49.607Z,16.93
2022-12-28T02:17:19.744Z,17.83
2022-12-28T02:19:53.798Z,16.30
2022-12-28T02:22:41.935Z,16.60
2022-12-28T02:25:34.245Z,16.70
2022-12-28T02:28:08.822Z,16.03
2022-12-28T02:30:40.472Z,15.40
2022-12-28T02:33:21.240Z,14.87
2022-12-28T02:35:58.226Z,15.70
2022-12-28T02:38:41.740Z,14.73
2022-12-28T02:41:16.130Z,15.20
2022-12-28T02:43:45.630Z,15.40
2022-12-28T02:46:41.303Z,16.33
2022-12-28T02:49:40.062Z,16.93
2022-12-28T02:52:31.189Z,15.63
2022-12-28T02:55:35.968Z,14.70
2022-12-28T02:58:33.388Z,14.57
2022-12-28T03:01:26.312Z,13.50
2022-12-28T03:04:14.253Z,14.40
2022-12-28T03:07:03.425Z,13.70
2022-12-28T03:09:51.612Z,14.13
2022-12-28T03:12:26.726Z,12.60
2022-12-28T03:15:04.392Z,14.33
2022-12-28T03:17:54.481Z,12.37
2022-12-28T03:20:44.080Z,13.07
2022-12-28T03:23:33.269Z,13.47
2022-12-28T03:26:22.581Z,12.93
2022-12-28T03:29:10.185Z,12.27
2022-12-28T03:31:39.262Z,12.03
2022-12-28T03:34:08.391Z,11.90
2022-12-28T03:36:56.564Z,10.83
2022-12-28T03:39:52.873Z,11.30
2022-12-28T03:42:51.495Z,10.40
2022-12-28T03:45:45.014Z,10.23
2022-12-28T03:48:12.019Z,10.03
2022-12-28T03:50:43.961Z,8.77
2022-12-28T03:53:12.634Z,7.83
2022-12-28T03:55:43.480Z,8.43
2022-12-28T03:58:12.466Z,7.67
2022-12-28T04:00:41.098Z,8.20
2022-12-28T04:03:18.673Z,8.30
2022-12-28T04:05:47.367Z,8.03
2022-12-28T04:08:15.972Z,8.07
2022-12-28T04:10:44.789Z,8.73
2022-12-28T04:13:13.520Z,8.13
2022-12-28T04:15:42.262Z,7.50
2022-12-28T04:18:12.382Z,8.30
2022-12-28T04:20:41.267Z,8.00
2022-12-28T04:23:12.826Z,7.33
2022-12-28T04:25:41.435Z,6.93
2022-12-28T04:28:10.134Z,6.97
2022-12-28T04:30:38.757Z,8.27
2022-12-28T04:33:07.417Z,6.47
2022-12-28T04:35:36.077Z,7.67
2022-12-28T04:38:04.597Z,6.60
2022-12-28T04:40:33.168Z,6.77
2022-12-28T04:43:03.323Z,6.80
2022-12-28T04:45:31.864Z,6.50
2022-12-28T04:48:02.742Z,6.10
2022-12-28T04:50:31.769Z,6.70
2022-12-28T04:53:03.113Z,6.43
2022-12-28T04:55:37.572Z,6.33
2022-12-28T04:58:06.138Z,5.97
2022-12-28T05:00:34.844Z,6.03
2022-12-28T05:03:03.885Z,5.90
2022-12-28T05:05:37.874Z,5.60
2022-12-28T05:08:07.632Z,5.27
2022-12-28T05:10:36.599Z,5.67
2022-12-28T05:13:05.217Z,6.27
2022-12-28T05:15:33.880Z,5.60
2022-12-28T05:18:02.555Z,5.23
2022-12-28T05:20:31.149Z,5.63
2022-12-28T05:22:59.766Z,5.33
2022-12-28T05:25:28.284Z,5.63
2022-12-28T05:27:56.878Z,5.67
2022-12-28T05:30:25.626Z,4.80
2022-12-28T05:32:54.227Z,5.23
2022-12-28T05:35:22.813Z,4.70
2022-12-28T05:37:51.445Z,4.87
2022-12-28T05:40:20.033Z,5.47
2022-12-28T05:42:51.615Z,5.60
2022-12-28T05:45:19.207Z,5.73
2022-12-28T05:47:47.803Z,5.60
2022-12-28T05:50:16.655Z,5.23
2022-12-28T05:52:45.326Z,5.90
2022-12-28T05:55:14.410Z,6.03
2022-12-28T05:57:43.218Z,5.87
2022-12-28T06:00:12.562Z,5.43
2022-12-28T06:02:45.386Z,5.67
2022-12-28T06:05:14.390Z,5.57
2022-12-28T06:07:42.949Z,5.93
2022-12-28T06:10:11.540Z,6.63
2022-12-28T06:12:40.152Z,5.77
2022-12-28T06:15:13.860Z,5.73
2022-12-28T06:17:42.523Z,6.60
2022-12-28T06:20:11.984Z,5.93
2022-12-28T06:22:40.664Z,5.83
2022-12-28T06:25:10.411Z,6.10
2022-12-28T06:27:38.930Z,6.00
2022-12-28T06:30:08.663Z,6.43
2022-12-28T06:32:37.310Z,6.63
2022-12-28T06:35:06.298Z,6.37
2022-12-28T06:37:34.868Z,6.77
2022-12-28T06:40:03.514Z,7.50
2022-12-28T06:42:32.136Z,7.37
2022-12-28T06:45:00.853Z,7.20
2022-12-28T06:47:29.552Z,8.67
2022-12-28T06:49:58.169Z,8.80
2022-12-28T06:52:26.879Z,8.93
2022-12-28T06:54:55.531Z,8.10
2022-12-28T06:57:24.109Z,8.93
2022-12-28T06:59:52.714Z,9.27
2022-12-28T07:02:21.706Z,8.50
2022-12-28T07:04:59.198Z,8.80
2022-12-28T07:07:25.072Z,8.93
2022-12-28T07:09:53.754Z,9.73
2022-12-28T07:12:22.512Z,8.93
2022-12-28T07:14:51.240Z,9.70
2022-12-28T07:17:19.954Z,8.73
2022-12-28T07:19:50.335Z,7.63
2022-12-28T07:22:18.854Z,8.83
2022-12-28T07:24:47.518Z,8.77
2022-12-28T07:27:16.274Z,11.63
2022-12-28T07:29:44.922Z,8.90
2022-12-28T07:32:13.651Z,9.73
2022-12-28T07:34:42.301Z,8.37
2022-12-28T07:37:10.956Z,9.17
2022-12-28T07:42:34.071Z,9.00
2022-12-28T07:45:03.592Z,10.50
2022-12-28T07:47:32.229Z,10.80
2022-12-28T07:50:00.866Z,10.30
2022-12-28T07:52:31.304Z,10.40
2022-12-28T07:54:59.951Z,11.93
2022-12-28T07:57:28.658Z,11.20
2022-12-28T07:59:57.301Z,10.33
2022-12-28T08:02:26.107Z,10.83
2022-12-28T08:04:54.756Z,10.63
2022-12-28T08:07:23.800Z,10.10
2022-12-28T08:09:52.523Z,9.60
2022-12-28T08:12:21.454Z,9.37
2022-12-28T08:14:53.116Z,9.70
2022-12-28T08:17:21.830Z,8.57
2022-12-28T08:19:52.517Z,9.13
2022-12-28T08:22:24.329Z,9.03
2022-12-28T08:24:53.262Z,9.03
2022-12-28T08:27:22.098Z,11.50
2022-12-28T08:29:51.104Z,9.67
2022-12-28T08:32:19.715Z,8.27
2022-12-28T08:35:00.161Z,9.10
2022-12-28T08:37:55.865Z,9.17
2022-12-28T08:41:28.573Z,9.77
2022-12-28T08:43:21.333Z,9.33
2022-12-28T08:46:19.121Z,8.23
2022-12-28T08:54:51.126Z,7.27
2022-12-28T08:57:41.689Z,12.90
2022-12-28T09:00:08.846Z,7.83
2022-12-28T09:02:37.891Z,6.40
2022-12-28T09:34:13.964Z,10.03
2022-12-28T09:36:20.569Z,9.80
2022-12-28T09:38:50.566Z,9.23
2022-12-28T09:41:28.147Z,10.07
2022-12-28T09:44:02.561Z,9.80
2022-12-28T09:46:33.731Z,9.93
2022-12-28T09:49:05.405Z,9.53
2022-12-28T09:51:37.026Z,9.13
2022-12-28T09:54:06.121Z,9.53
2022-12-28T09:56:37.718Z,8.83
2022-12-28T09:59:10.297Z,9.83
2022-12-28T10:01:41.282Z,9.43
2022-12-28T10:04:12.207Z,8.93
2022-12-28T10:07:04.397Z,9.10
2022-12-28T10:09:41.048Z,9.90
2022-12-28T10:12:15.659Z,8.87
2022-12-28T10:14:56.051Z,9.83
2022-12-28T10:17:33.386Z,8.80
2022-12-28T10:20:01.942Z,7.77
2022-12-28T10:22:33.622Z,8.30
2022-12-28T10:25:06.822Z,6.80
2022-12-28T10:27:35.427Z,6.87
2022-12-28T10:30:05.796Z,7.80
2022-12-28T10:32:56.733Z,8.47
2022-12-28T10:35:25.800Z,8.20
2022-12-28T10:38:00.811Z,7.67
2022-12-28T10:40:32.422Z,7.70
2022-12-28T10:43:10.097Z,7.87
2022-12-28T10:45:43.328Z,7.93
2022-12-28T10:48:20.966Z,8.13
2022-12-28T10:51:04.965Z,9.07
2022-12-28T10:53:57.440Z,8.73
2022-12-28T10:56:29.034Z,7.80
2022-12-28T10:59:17.248Z,9.00
2022-12-28T11:01:46.153Z,8.57
2022-12-28T11:04:25.999Z,9.27
2022-12-28T11:06:58.898Z,8.57
2022-12-28T11:09:36.198Z,9.37
2022-12-28T11:12:29.071Z,9.43
2022-12-28T11:14:57.869Z,8.63
2022-12-28T11:17:29.487Z,10.03
2022-12-28T11:20:01.041Z,9.07
2022-12-28T11:22:31.905Z,9.73
2022-12-28T11:25:02.481Z,10.20
2022-12-28T11:27:32.821Z,9.13
2022-12-28T11:30:04.385Z,8.40
2022-12-28T11:32:36.068Z,8.37
2022-12-28T11:35:05.330Z,7.87
2022-12-28T11:37:36.529Z,8.67
2022-12-28T11:40:10.324Z,8.70
2022-12-28T11:42:43.869Z,8.37
2022-12-28T11:45:26.502Z,9.70
2022-12-28T11:51:02.987Z,12.47
2022-12-28T12:08:44.309Z,13.00
2022-12-28T12:10:23.831Z,13.97
2022-12-28T12:12:53.765Z,16.60
2022-12-28T12:15:30.058Z,15.40
2022-12-28T12:18:09.820Z,15.13
2022-12-28T12:21:01.227Z,14.73
2022-12-28T12:23:47.847Z,14.67
2022-12-28T12:26:31.664Z,15.10
2022-12-28T12:29:39.753Z,13.30
2022-12-28T12:32:23.258Z,12.37
2022-12-28T12:34:57.740Z,11.23
2022-12-28T12:37:56.864Z,10.20
2022-12-28T12:40:55.712Z,10.37
2022-12-28T12:43:44.179Z,9.77
2022-12-28T12:46:15.858Z,8.50
2022-12-28T12:49:05.253Z,8.77
2022-12-28T12:51:43.259Z,9.30
2022-12-28T12:54:42.855Z,9.60
2022-12-28T12:57:20.098Z,9.60
2022-12-28T13:00:16.439Z,10.20
2022-12-28T13:03:04.998Z,11.30
2022-12-28T13:05:37.573Z,11.87
2022-12-28T13:08:07.236Z,12.23
2022-12-28T13:10:43.276Z,12.23
2022-12-28T13:13:15.851Z,11.70
2022-12-28T13:15:45.420Z,12.30
2022-12-28T13:21:10.532Z,12.57
2022-12-28T13:23:38.406Z,12.77
2022-12-28T13:26:09.254Z,11.87
2022-12-28T13:31:34.724Z,12.13
2022-12-28T13:34:08.999Z,11.87
2022-12-28T13:36:39.166Z,12.47
2022-12-28T13:39:12.964Z,12.60
2022-12-28T13:41:56.319Z,12.77
2022-12-28T13:44:33.472Z,13.43
2022-12-28T13:47:19.655Z,14.63
2022-12-28T13:50:04.881Z,13.80
2022-12-28T13:52:36.048Z,13.87
2022-12-28T13:55:16.673Z,13.83
2022-12-28T13:57:57.362Z,13.37
2022-12-28T14:00:24.582Z,14.13
2022-12-28T14:03:28.635Z,17.17
2022-12-28T14:06:09.496Z,17.50
2022-12-28T14:08:40.321Z,16.03
2022-12-28T14:12:14.494Z,17.13
2022-12-28T14:13:58.656Z,15.63
2022-12-28T14:16:27.439Z,15.50
2022-12-28T14:18:58.156Z,14.97
2022-12-28T14:21:35.546Z,16.33
2022-12-28T14:24:09.640Z,17.00
2022-12-28T14:26:42.132Z,18.07
2022-12-28T14:29:15.496Z,16.67
2022-12-28T14:31:49.475Z,16.93
2022-12-28T14:37:00.704Z,16.43
2022-12-28T14:39:38.731Z,16.87
2022-12-28T14:42:09.778Z,16.20
2022-12-28T14:44:40.942Z,17.47
2022-12-28T14:47:35.153Z,20.83
2022-12-28T14:52:48.956Z,20.37
2022-12-28T14:58:30.922Z,21.10
2022-12-28T15:01:02.417Z,22.10
2022-12-28T15:03:37.184Z,22.33
2022-12-28T15:06:05.896Z,20.77
2022-12-28T15:08:36.121Z,20.60
2022-12-28T15:13:35.286Z,19.37
2022-12-28T15:16:05.241Z,21.33
2022-12-28T15:18:34.210Z,21.37
2022-12-28T15:21:07.019Z,20.70
2022-12-28T15:23:35.753Z,20.30
2022-12-28T15:26:09.786Z,21.73
2022-12-28T15:28:42.316Z,21.53
2022-12-28T15:31:13.750Z,21.80
2022-12-28T15:33:44.730Z,21.43
2022-12-28T15:36:19.069Z,19.43
2022-12-28T15:38:50.370Z,22.17
2022-12-28T15:41:37.918Z,21.27
2022-12-28T15:44:06.909Z,21.30
2022-12-28T15:46:35.637Z,20.70
2022-12-28T15:49:05.339Z,20.60
2022-12-28T15:51:35.900Z,21.20
2022-12-28T15:54:04.800Z,20.57
2022-12-28T15:56:36.445Z,20.33
2022-12-28T15:59:07.756Z,21.30
2022-12-28T16:13:44.087Z,20.87
2022-12-28T16:16:21.314Z,20.47
2022-12-28T16:18:56.695Z,19.77
2022-12-28T16:21:38.214Z,20.27
2022-12-28T16:24:07.382Z,20.33
2022-12-28T16:26:36.392Z,19.57
2022-12-28T16:29:05.305Z,19.37
2022-12-28T16:31:41.669Z,20.67
2022-12-28T16:34:13.908Z,21.77
2022-12-28T16:36:45.703Z,21.43
2022-12-28T16:39:16.390Z,21.10
2022-12-28T16:41:45.398Z,21.13
2022-12-28T16:44:21.776Z,20.60
2022-12-28T16:46:50.865Z,22.23
2022-12-28T16:49:19.896Z,21.07
2022-12-28T17:11:16.283Z,24.60
2022-12-28T17:13:44.917Z,25.80
2022-12-28T17:16:15.141Z,25.47
2022-12-28T17:18:45.540Z,25.80
2022-12-28T17:21:38.161Z,23.57
2022-12-28T17:45:52.176Z,27.47
2022-12-28T17:51:33.521Z,30.47
2022-12-28T17:57:01.278Z,35.80
2022-12-28T18:46:19.889Z,40.60
2022-12-28T18:49:09.556Z,40.47
2022-12-28T18:52:06.909Z,37.37
2022-12-28T18:54:42.482Z,35.90
2022-12-28T20:25:35.716Z,15.17
2022-12-28T20:28:01.930Z,15.70
2022-12-28T20:30:36.299Z,15.70
2022-12-28T20:33:08.449Z,15.23
2022-12-28T20:35:58.008Z,15.63
2022-12-28T20:38:27.039Z,16.00
2022-12-28T20:41:07.279Z,15.67
2022-12-28T20:43:38.442Z,15.37
2022-12-28T20:46:17.028Z,15.37
2022-12-28T20:54:57.407Z,16.00
2022-12-28T20:57:26.058Z,15.90
2022-12-28T21:00:00.380Z,17.10
2022-12-28T21:02:29.067Z,16.37
2022-12-28T21:05:01.264Z,16.87
2022-12-28T21:07:31.848Z,16.37
2022-12-28T21:10:00.733Z,16.40
2022-12-28T21:12:31.217Z,17.03
2022-12-28T21:14:59.957Z,17.60
2022-12-28T21:17:30.379Z,17.87
2022-12-28T21:19:59.044Z,17.87
2022-12-28T21:22:27.853Z,17.97
2022-12-28T21:24:56.615Z,18.40
2022-12-28T21:27:25.354Z,18.97
2022-12-28T21:29:54.071Z,18.40
2022-12-28T21:32:22.958Z,20.27
2022-12-28T21:34:51.576Z,20.67
2022-12-28T21:37:35.383Z,19.73
2022-12-28T21:40:06.591Z,20.50
2022-12-28T21:42:38.473Z,19.80
2022-12-28T21:45:14.118Z,19.27
2022-12-28T21:47:48.990Z,20.80
2022-12-28T21:50:19.189Z,20.00
2022-12-28T21:52:47.941Z,20.33
2022-12-28T21:55:34.768Z,18.50
2022-12-28T21:58:03.384Z,18.77
2022-12-28T22:00:51.543Z,19.83
2022-12-28T22:03:41.628Z,19.70
2022-12-28T22:06:10.486Z,19.67
2022-12-28T22:09:00.311Z,19.13
2022-12-28T22:11:51.718Z,18.30
2022-12-28T22:14:22.065Z,17.07
2022-12-28T22:16:51.241Z,18.20
2022-12-28T22:19:31.869Z,16.73
2022-12-28T22:21:56.935Z,18.27
2022-12-28T22:24:29.044Z,17.90
2022-12-28T22:27:00.875Z,16.90
2022-12-28T22:29:37.399Z,15.77
2022-12-28T22:32:25.883Z,16.13
2022-12-28T22:35:26.112Z,15.87
2022-12-28T22:38:00.963Z,15.83
2022-12-28T22:43:36.836Z,16.07
2022-12-28T22:46:10.925Z,17.83
2022-12-28T22:48:39.880Z,17.80
2022-12-28T22:51:11.344Z,18.10
2022-12-28T22:53:40.801Z,18.63
2022-12-28T22:56:14.097Z,16.63
2022-12-28T22:58:42.807Z,17.10
2022-12-28T23:01:17.360Z,13.93
2022-12-28T23:03:49.507Z,13.43
2022-12-28T23:06:20.688Z,13.53
2022-12-28T23:08:49.310Z,12.70
2022-12-28T23:11:40.833Z,13.63
2022-12-28T23:14:32.652Z,13.47
2022-12-28T23:17:02.736Z,13.07
2022-12-28T23:19:49.847Z,14.10
2022-12-28T23:22:45.282Z,13.50
2022-12-28T23:25:34.523Z,14.00
2022-12-28T23:28:05.668Z,14.10
2022-12-28T23:30:34.889Z,14.23
2022-12-28T23:33:04.277Z,13.40
2022-12-28T23:35:33.448Z,14.33
2022-12-28T23:38:02.282Z,13.60
2022-12-28T23:40:31.258Z,13.33
2022-12-28T23:43:01.151Z,14.80
2022-12-28T23:45:31.425Z,15.13
2022-12-28T23:47:59.999Z,14.97
2022-12-28T23:50:32.078Z,15.50
2022-12-28T23:53:10.290Z,15.60
2022-12-28T23:55:39.691Z,16.23
2022-12-28T23:58:10.046Z,15.77
